Terminal Aerodrome Forecast
Issued by NWS

Home | Current Version | Previous Version | Text Only | Print | Product List | Glossary On
Versions: 1 2 3 4 5 6 7 8 9 10 11 12 13 14 15 16
967
FTUS42 KFFC 221934 CCA
TAFPDK
TAF COR
KPDK 221934Z 2220/2318 16007KT 5SM BR VCSH OVC006
     FM222200 17009G17KT 5SM -SHRA SCT008 OVC012
      TEMPO 2222/2302 21014G25KT 4SM TSRA OVC007CB
     FM230600 22008KT 6SM BR OVC015
     FM230900 27008KT P6SM BKN050
     FM231200 28007KT P6SM FEW250
     FM231500 29011G17KT P6SM FEW250=

USA.gov is the U.S. government's official web portal to all federal, state and local government web resources and services.